sensor_id;sensor_type;location;lat;lon;timestamp;P1;durP1;ratioP1;P2;durP2;ratioP2
17390;SDS011;8813;54.444;18.446;2023-04-01T00:01:55;3.42;;;3.25;;
17390;SDS011;8813;54.444;18.446;2023-04-01T00:04:22;2.50;;;2.50;;
17390;SDS011;8813;54.444;18.446;2023-04-01T00:06:50;2.40;;;2.40;;
17390;SDS011;8813;54.444;18.446;2023-04-01T00:09:17;4.30;;;2.88;;
17390;SDS011;8813;54.444;18.446;2023-04-01T00:11:44;2.60;;;2.60;;
17390;SDS011;8813;54.444;18.446;2023-04-01T00:14:12;2.60;;;2.60;;
17390;SDS011;8813;54.444;18.446;2023-04-01T00:16:39;2.60;;;2.60;;
17390;SDS011;8813;54.444;18.446;2023-04-01T00:19:06;2.60;;;2.60;;
17390;SDS011;8813;54.444;18.446;2023-04-01T00:21:33;2.60;;;2.60;;
17390;SDS011;8813;54.444;18.446;2023-04-01T00:24:01;3.20;;;3.10;;
17390;SDS011;8813;54.444;18.446;2023-04-01T00:26:28;2.95;;;2.95;;
17390;SDS011;8813;54.444;18.446;2023-04-01T00:28:55;6.20;;;2.75;;
17390;SDS011;8813;54.444;18.446;2023-04-01T00:31:22;3.08;;;2.97;;
17390;SDS011;8813;54.444;18.446;2023-04-01T00:33:48;2.75;;;2.75;;
17390;SDS011;8813;54.444;18.446;2023-04-01T00:36:16;2.83;;;2.83;;
17390;SDS011;8813;54.444;18.446;2023-04-01T00:38:44;3.55;;;3.45;;
17390;SDS011;8813;54.444;18.446;2023-04-01T00:41:14;2.90;;;2.90;;
17390;SDS011;8813;54.444;18.446;2023-04-01T00:43:42;3.17;;;3.08;;
17390;SDS011;8813;54.444;18.446;2023-04-01T00:46:10;3.50;;;3.40;;
17390;SDS011;8813;54.444;18.446;2023-04-01T00:48:38;3.30;;;3.20;;
17390;SDS011;8813;54.444;18.446;2023-04-01T00:51:06;4.00;;;3.90;;
17390;SDS011;8813;54.444;18.446;2023-04-01T00:53:36;3.28;;;3.28;;
17390;SDS011;8813;54.444;18.446;2023-04-01T00:56:05;2.80;;;2.80;;
17390;SDS011;8813;54.444;18.446;2023-04-01T00:58:38;3.15;;;3.10;;
17390;SDS011;8813;54.444;18.446;2023-04-01T01:01:07;3.00;;;3.00;;
17390;SDS011;8813;54.444;18.446;2023-04-01T01:03:35;3.30;;;3.20;;
17390;SDS011;8813;54.444;18.446;2023-04-01T01:06:15;3.10;;;3.10;;
17390;SDS011;8813;54.444;18.446;2023-04-01T01:11:45;3.10;;;3.00;;
17390;SDS011;8813;54.444;18.446;2023-04-01T01:14:20;3.30;;;3.20;;
17390;SDS011;8813;54.444;18.446;2023-04-01T01:16:55;3.00;;;3.00;;
17390;SDS011;8813;54.444;18.446;2023-04-01T01:19:33;3.13;;;3.03;;
17390;SDS011;8813;54.444;18.446;2023-04-01T01:25:15;3.40;;;3.30;;
17390;SDS011;8813;54.444;18.446;2023-04-01T01:27:47;2.90;;;2.90;;
17390;SDS011;8813;54.444;18.446;2023-04-01T01:30:37;2.90;;;2.90;;
17390;SDS011;8813;54.444;18.446;2023-04-01T01:36:13;2.80;;;2.80;;
17390;SDS011;8813;54.444;18.446;2023-04-01T01:38:40;3.07;;;3.07;;
17390;SDS011;8813;54.444;18.446;2023-04-01T01:41:07;3.00;;;3.00;;
17390;SDS011;8813;54.444;18.446;2023-04-01T01:43:35;3.40;;;3.30;;
17390;SDS011;8813;54.444;18.446;2023-04-01T01:46:06;2.60;;;2.60;;
17390;SDS011;8813;54.444;18.446;2023-04-01T01:48:35;3.07;;;3.07;;
17390;SDS011;8813;54.444;18.446;2023-04-01T01:51:03;3.37;;;3.30;;
17390;SDS011;8813;54.444;18.446;2023-04-01T01:53:31;4.33;;;3.50;;
17390;SDS011;8813;54.444;18.446;2023-04-01T01:55:58;3.30;;;3.30;;
17390;SDS011;8813;54.444;18.446;2023-04-01T01:58:27;3.20;;;3.20;;
17390;SDS011;8813;54.444;18.446;2023-04-01T02:00:55;4.17;;;4.00;;
17390;SDS011;8813;54.444;18.446;2023-04-01T02:03:24;3.97;;;3.87;;
17390;SDS011;8813;54.444;18.446;2023-04-01T02:05:52;3.90;;;3.80;;
17390;SDS011;8813;54.444;18.446;2023-04-01T02:08:21;3.73;;;3.63;;
17390;SDS011;8813;54.444;18.446;2023-04-01T02:10:52;3.70;;;3.60;;
17390;SDS011;8813;54.444;18.446;2023-04-01T02:13:23;4.00;;;3.80;;
17390;SDS011;8813;54.444;18.446;2023-04-01T02:15:51;11.17;;;4.60;;
17390;SDS011;8813;54.444;18.446;2023-04-01T02:18:20;4.00;;;3.90;;
17390;SDS011;8813;54.444;18.446;2023-04-01T02:20:47;4.00;;;3.90;;
17390;SDS011;8813;54.444;18.446;2023-04-01T02:23:15;4.30;;;4.20;;
17390;SDS011;8813;54.444;18.446;2023-04-01T02:25:42;4.00;;;3.90;;
17390;SDS011;8813;54.444;18.446;2023-04-01T02:28:11;4.60;;;4.50;;
17390;SDS011;8813;54.444;18.446;2023-04-01T02:30:39;3.70;;;3.60;;
17390;SDS011;8813;54.444;18.446;2023-04-01T02:33:07;4.50;;;4.17;;
17390;SDS011;8813;54.444;18.446;2023-04-01T02:35:35;4.20;;;4.10;;
17390;SDS011;8813;54.444;18.446;2023-04-01T02:38:02;4.40;;;4.30;;
17390;SDS011;8813;54.444;18.446;2023-04-01T02:40:39;4.50;;;4.40;;
17390;SDS011;8813;54.444;18.446;2023-04-01T02:43:07;4.40;;;4.30;;
17390;SDS011;8813;54.444;18.446;2023-04-01T02:45:36;4.83;;;4.73;;
17390;SDS011;8813;54.444;18.446;2023-04-01T02:48:03;4.30;;;4.20;;
17390;SDS011;8813;54.444;18.446;2023-04-01T02:50:30;4.40;;;4.30;;
17390;SDS011;8813;54.444;18.446;2023-04-01T02:52:57;28.23;;;4.77;;
17390;SDS011;8813;54.444;18.446;2023-04-01T02:55:23;4.37;;;4.27;;
17390;SDS011;8813;54.444;18.446;2023-04-01T02:57:50;4.10;;;4.00;;
17390;SDS011;8813;54.444;18.446;2023-04-01T03:00:17;4.20;;;4.10;;
17390;SDS011;8813;54.444;18.446;2023-04-01T03:02:46;4.00;;;3.90;;
17390;SDS011;8813;54.444;18.446;2023-04-01T03:05:12;4.40;;;4.30;;
17390;SDS011;8813;54.444;18.446;2023-04-01T03:07:40;4.40;;;4.30;;
17390;SDS011;8813;54.444;18.446;2023-04-01T03:10:07;20.63;;;5.00;;
17390;SDS011;8813;54.444;18.446;2023-04-01T03:12:34;4.20;;;4.10;;
17390;SDS011;8813;54.444;18.446;2023-04-01T03:15:01;3.70;;;3.60;;
17390;SDS011;8813;54.444;18.446;2023-04-01T03:17:28;3.90;;;3.80;;
17390;SDS011;8813;54.444;18.446;2023-04-01T03:19:57;3.90;;;3.80;;
17390;SDS011;8813;54.444;18.446;2023-04-01T03:22:23;4.27;;;4.17;;
17390;SDS011;8813;54.444;18.446;2023-04-01T03:24:50;5.20;;;5.10;;
17390;SDS011;8813;54.444;18.446;2023-04-01T03:27:17;4.20;;;4.10;;
17390;SDS011;8813;54.444;18.446;2023-04-01T03:29:44;4.30;;;4.20;;
17390;SDS011;8813;54.444;18.446;2023-04-01T03:32:11;4.50;;;4.40;;
17390;SDS011;8813;54.444;18.446;2023-04-01T03:34:37;4.40;;;4.30;;
17390;SDS011;8813;54.444;18.446;2023-04-01T03:37:06;4.20;;;4.10;;
17390;SDS011;8813;54.444;18.446;2023-04-01T03:39:32;4.20;;;4.10;;
17390;SDS011;8813;54.444;18.446;2023-04-01T03:42:00;4.50;;;4.40;;
17390;SDS011;8813;54.444;18.446;2023-04-01T03:44:29;4.27;;;4.17;;
17390;SDS011;8813;54.444;18.446;2023-04-01T03:46:57;4.47;;;4.37;;
17390;SDS011;8813;54.444;18.446;2023-04-01T03:49:24;4.67;;;4.57;;
17390;SDS011;8813;54.444;18.446;2023-04-01T03:51:51;4.40;;;4.10;;
17390;SDS011;8813;54.444;18.446;2023-04-01T03:54:19;4.30;;;4.20;;
17390;SDS011;8813;54.444;18.446;2023-04-01T03:56:47;4.17;;;4.07;;
17390;SDS011;8813;54.444;18.446;2023-04-01T03:59:13;4.40;;;4.30;;
17390;SDS011;8813;54.444;18.446;2023-04-01T04:01:41;8.83;;;4.23;;
17390;SDS011;8813;54.444;18.446;2023-04-01T04:04:10;4.27;;;4.07;;
17390;SDS011;8813;54.444;18.446;2023-04-01T04:06:37;3.90;;;3.80;;
17390;SDS011;8813;54.444;18.446;2023-04-01T04:09:04;4.00;;;3.90;;
17390;SDS011;8813;54.444;18.446;2023-04-01T04:11:32;4.23;;;4.13;;
17390;SDS011;8813;54.444;18.446;2023-04-01T04:13:59;4.10;;;4.00;;
17390;SDS011;8813;54.444;18.446;2023-04-01T04:16:27;4.20;;;4.10;;
17390;SDS011;8813;54.444;18.446;2023-04-01T04:18:54;6.10;;;5.60;;
17390;SDS011;8813;54.444;18.446;2023-04-01T04:21:20;15.00;;;5.30;;
17390;SDS011;8813;54.444;18.446;2023-04-01T04:23:47;4.00;;;3.90;;
17390;SDS011;8813;54.444;18.446;2023-04-01T04:26:14;4.53;;;4.43;;
17390;SDS011;8813;54.444;18.446;2023-04-01T04:28:43;4.03;;;3.93;;
17390;SDS011;8813;54.444;18.446;2023-04-01T04:31:10;3.83;;;3.72;;
17390;SDS011;8813;54.444;18.446;2023-04-01T04:33:38;3.70;;;3.60;;
17390;SDS011;8813;54.444;18.446;2023-04-01T04:36:05;4.22;;;4.13;;
17390;SDS011;8813;54.444;18.446;2023-04-01T04:38:32;4.10;;;4.00;;
17390;SDS011;8813;54.444;18.446;2023-04-01T04:40:59;4.00;;;3.90;;
17390;SDS011;8813;54.444;18.446;2023-04-01T04:43:26;3.80;;;3.70;;
17390;SDS011;8813;54.444;18.446;2023-04-01T04:45:54;3.87;;;3.77;;
17390;SDS011;8813;54.444;18.446;2023-04-01T04:48:21;4.57;;;4.37;;
17390;SDS011;8813;54.444;18.446;2023-04-01T04:50:49;7.33;;;4.10;;
17390;SDS011;8813;54.444;18.446;2023-04-01T04:53:17;3.70;;;3.60;;
17390;SDS011;8813;54.444;18.446;2023-04-01T04:55:44;3.77;;;3.67;;
17390;SDS011;8813;54.444;18.446;2023-04-01T04:58:11;15.23;;;4.77;;
17390;SDS011;8813;54.444;18.446;2023-04-01T05:00:38;12.10;;;5.07;;
17390;SDS011;8813;54.444;18.446;2023-04-01T05:03:06;4.00;;;3.90;;
17390;SDS011;8813;54.444;18.446;2023-04-01T05:05:33;4.00;;;3.90;;
17390;SDS011;8813;54.444;18.446;2023-04-01T05:08:00;4.60;;;4.10;;
17390;SDS011;8813;54.444;18.446;2023-04-01T05:10:27;73.33;;;8.50;;
17390;SDS011;8813;54.444;18.446;2023-04-01T05:12:55;20.17;;;6.40;;
17390;SDS011;8813;54.444;18.446;2023-04-01T05:15:22;5.67;;;5.20;;
17390;SDS011;8813;54.444;18.446;2023-04-01T05:17:49;5.03;;;4.93;;
17390;SDS011;8813;54.444;18.446;2023-04-01T05:20:18;4.90;;;4.80;;
17390;SDS011;8813;54.444;18.446;2023-04-01T05:22:45;7.63;;;4.90;;
17390;SDS011;8813;54.444;18.446;2023-04-01T05:25:11;26.13;;;6.37;;
17390;SDS011;8813;54.444;18.446;2023-04-01T05:27:38;43.37;;;6.93;;
17390;SDS011;8813;54.444;18.446;2023-04-01T05:30:06;136.40;;;9.43;;
17390;SDS011;8813;54.444;18.446;2023-04-01T05:32:33;4.93;;;4.83;;
17390;SDS011;8813;54.444;18.446;2023-04-01T05:35:00;16.13;;;5.40;;
17390;SDS011;8813;54.444;18.446;2023-04-01T05:37:28;73.07;;;7.30;;
17390;SDS011;8813;54.444;18.446;2023-04-01T05:39:55;31.95;;;7.78;;
17390;SDS011;8813;54.444;18.446;2023-04-01T05:42:23;6.47;;;6.00;;
17390;SDS011;8813;54.444;18.446;2023-04-01T05:44:50;5.60;;;5.50;;
17390;SDS011;8813;54.444;18.446;2023-04-01T05:47:18;22.33;;;7.10;;
17390;SDS011;8813;54.444;18.446;2023-04-01T05:49:44;6.13;;;5.60;;
17390;SDS011;8813;54.444;18.446;2023-04-01T05:52:11;5.80;;;5.70;;
17390;SDS011;8813;54.444;18.446;2023-04-01T05:54:40;31.20;;;6.00;;
17390;SDS011;8813;54.444;18.446;2023-04-01T05:57:07;5.90;;;5.50;;
17390;SDS011;8813;54.444;18.446;2023-04-01T05:59:33;5.50;;;5.40;;
17390;SDS011;8813;54.444;18.446;2023-04-01T06:02:01;10.32;;;6.03;;
17390;SDS011;8813;54.444;18.446;2023-04-01T06:04:28;5.50;;;5.40;;
17390;SDS011;8813;54.444;18.446;2023-04-01T06:07:01;5.40;;;5.30;;
17390;SDS011;8813;54.444;18.446;2023-04-01T06:09:35;6.10;;;6.00;;
17390;SDS011;8813;54.444;18.446;2023-04-01T06:12:10;5.70;;;5.60;;
17390;SDS011;8813;54.444;18.446;2023-04-01T06:14:52;5.57;;;5.47;;
17390;SDS011;8813;54.444;18.446;2023-04-01T06:17:28;5.50;;;5.40;;
17390;SDS011;8813;54.444;18.446;2023-04-01T06:20:00;5.60;;;5.50;;
17390;SDS011;8813;54.444;18.446;2023-04-01T06:22:36;5.20;;;5.10;;
17390;SDS011;8813;54.444;18.446;2023-04-01T06:25:22;5.30;;;5.20;;
17390;SDS011;8813;54.444;18.446;2023-04-01T06:28:03;5.07;;;4.97;;
17390;SDS011;8813;54.444;18.446;2023-04-01T06:30:49;5.20;;;5.10;;
17390;SDS011;8813;54.444;18.446;2023-04-01T06:33:23;5.80;;;5.60;;
17390;SDS011;8813;54.444;18.446;2023-04-01T06:36:02;5.40;;;5.30;;
17390;SDS011;8813;54.444;18.446;2023-04-01T06:38:37;5.17;;;5.07;;
17390;SDS011;8813;54.444;18.446;2023-04-01T06:41:21;5.80;;;5.70;;
17390;SDS011;8813;54.444;18.446;2023-04-01T06:44:04;5.10;;;5.00;;
17390;SDS011;8813;54.444;18.446;2023-04-01T06:46:38;5.37;;;5.27;;
17390;SDS011;8813;54.444;18.446;2023-04-01T06:49:17;4.80;;;4.70;;
17390;SDS011;8813;54.444;18.446;2023-04-01T06:51:52;4.80;;;4.70;;
17390;SDS011;8813;54.444;18.446;2023-04-01T06:54:26;5.20;;;5.00;;
17390;SDS011;8813;54.444;18.446;2023-04-01T06:56:58;5.37;;;5.20;;
17390;SDS011;8813;54.444;18.446;2023-04-01T06:59:30;5.50;;;5.40;;
17390;SDS011;8813;54.444;18.446;2023-04-01T07:02:01;5.50;;;5.40;;
17390;SDS011;8813;54.444;18.446;2023-04-01T07:04:33;5.73;;;5.63;;
17390;SDS011;8813;54.444;18.446;2023-04-01T07:07:03;5.10;;;5.00;;
17390;SDS011;8813;54.444;18.446;2023-04-01T07:09:32;5.10;;;5.00;;
17390;SDS011;8813;54.444;18.446;2023-04-01T07:12:02;5.07;;;4.97;;
17390;SDS011;8813;54.444;18.446;2023-04-01T07:14:37;5.20;;;5.10;;
17390;SDS011;8813;54.444;18.446;2023-04-01T07:17:08;5.20;;;5.10;;
17390;SDS011;8813;54.444;18.446;2023-04-01T07:19:39;5.33;;;5.23;;
17390;SDS011;8813;54.444;18.446;2023-04-01T07:22:14;4.70;;;4.60;;
17390;SDS011;8813;54.444;18.446;2023-04-01T07:24:45;4.50;;;4.40;;
17390;SDS011;8813;54.444;18.446;2023-04-01T07:27:13;4.43;;;4.33;;
17390;SDS011;8813;54.444;18.446;2023-04-01T07:29:42;4.80;;;4.70;;
17390;SDS011;8813;54.444;18.446;2023-04-01T07:32:17;4.70;;;4.60;;
17390;SDS011;8813;54.444;18.446;2023-04-01T07:35:01;5.00;;;4.90;;
17390;SDS011;8813;54.444;18.446;2023-04-01T07:37:36;5.53;;;5.33;;
17390;SDS011;8813;54.444;18.446;2023-04-01T07:40:09;5.10;;;5.00;;
17390;SDS011;8813;54.444;18.446;2023-04-01T07:42:50;4.60;;;4.50;;
17390;SDS011;8813;54.444;18.446;2023-04-01T07:45:28;4.70;;;4.60;;
17390;SDS011;8813;54.444;18.446;2023-04-01T07:48:10;5.20;;;5.10;;
17390;SDS011;8813;54.444;18.446;2023-04-01T07:50:46;4.40;;;4.30;;
17390;SDS011;8813;54.444;18.446;2023-04-01T07:53:18;4.43;;;4.33;;
17390;SDS011;8813;54.444;18.446;2023-04-01T07:55:50;4.70;;;4.60;;
17390;SDS011;8813;54.444;18.446;2023-04-01T07:58:25;4.80;;;4.70;;
17390;SDS011;8813;54.444;18.446;2023-04-01T08:00:58;5.00;;;4.90;;
17390;SDS011;8813;54.444;18.446;2023-04-01T08:03:35;4.30;;;4.20;;
17390;SDS011;8813;54.444;18.446;2023-04-01T08:06:10;4.20;;;4.10;;
17390;SDS011;8813;54.444;18.446;2023-04-01T08:08:43;3.53;;;3.50;;
17390;SDS011;8813;54.444;18.446;2023-04-01T08:11:22;3.50;;;3.40;;
17390;SDS011;8813;54.444;18.446;2023-04-01T08:13:57;3.37;;;3.27;;
17390;SDS011;8813;54.444;18.446;2023-04-01T08:16:31;3.60;;;3.40;;
17390;SDS011;8813;54.444;18.446;2023-04-01T08:19:00;3.10;;;3.10;;
17390;SDS011;8813;54.444;18.446;2023-04-01T08:21:32;3.03;;;3.00;;
17390;SDS011;8813;54.444;18.446;2023-04-01T08:24:04;3.40;;;3.30;;
17390;SDS011;8813;54.444;18.446;2023-04-01T08:26:35;3.30;;;3.30;;
17390;SDS011;8813;54.444;18.446;2023-04-01T08:29:07;3.60;;;3.50;;
17390;SDS011;8813;54.444;18.446;2023-04-01T08:31:39;3.90;;;3.70;;
17390;SDS011;8813;54.444;18.446;2023-04-01T08:34:11;3.37;;;3.33;;
17390;SDS011;8813;54.444;18.446;2023-04-01T08:36:41;3.60;;;3.50;;
17390;SDS011;8813;54.444;18.446;2023-04-01T08:39:11;3.50;;;3.40;;
17390;SDS011;8813;54.444;18.446;2023-04-01T08:44:57;3.63;;;3.47;;
17390;SDS011;8813;54.444;18.446;2023-04-01T08:50:50;3.67;;;3.57;;
17390;SDS011;8813;54.444;18.446;2023-04-01T08:53:38;3.90;;;3.70;;
17390;SDS011;8813;54.444;18.446;2023-04-01T08:56:14;3.07;;;3.07;;
17390;SDS011;8813;54.444;18.446;2023-04-01T09:01:54;3.13;;;3.10;;
17390;SDS011;8813;54.444;18.446;2023-04-01T09:04:38;3.20;;;3.10;;
17390;SDS011;8813;54.444;18.446;2023-04-01T09:07:23;3.13;;;3.07;;
17390;SDS011;8813;54.444;18.446;2023-04-01T09:10:11;3.33;;;3.30;;
17390;SDS011;8813;54.444;18.446;2023-04-01T09:13:01;3.60;;;3.40;;
17390;SDS011;8813;54.444;18.446;2023-04-01T09:15:50;3.80;;;3.70;;
17390;SDS011;8813;54.444;18.446;2023-04-01T09:21:24;4.37;;;4.27;;
17390;SDS011;8813;54.444;18.446;2023-04-01T09:24:21;3.00;;;3.00;;
17390;SDS011;8813;54.444;18.446;2023-04-01T09:27:02;3.90;;;3.80;;
17390;SDS011;8813;54.444;18.446;2023-04-01T09:29:34;2.93;;;2.93;;
17390;SDS011;8813;54.444;18.446;2023-04-01T09:32:23;3.30;;;3.20;;
17390;SDS011;8813;54.444;18.446;2023-04-01T09:35:01;3.33;;;3.23;;
17390;SDS011;8813;54.444;18.446;2023-04-01T09:37:34;2.70;;;2.70;;
17390;SDS011;8813;54.444;18.446;2023-04-01T09:40:11;2.87;;;2.87;;
17390;SDS011;8813;54.444;18.446;2023-04-01T09:42:45;3.47;;;3.38;;
17390;SDS011;8813;54.444;18.446;2023-04-01T09:45:23;2.87;;;2.87;;
17390;SDS011;8813;54.444;18.446;2023-04-01T09:48:02;2.90;;;2.90;;
17390;SDS011;8813;54.444;18.446;2023-04-01T09:50:36;3.50;;;3.40;;
17390;SDS011;8813;54.444;18.446;2023-04-01T09:53:14;3.37;;;3.07;;
17390;SDS011;8813;54.444;18.446;2023-04-01T10:02:00;2.90;;;2.90;;
17390;SDS011;8813;54.444;18.446;2023-04-01T10:04:41;2.80;;;2.80;;
17390;SDS011;8813;54.444;18.446;2023-04-01T10:07:41;2.70;;;2.70;;
17390;SDS011;8813;54.444;18.446;2023-04-01T10:20:18;2.90;;;2.90;;
17390;SDS011;8813;54.444;18.446;2023-04-01T10:23:07;2.80;;;2.80;;
17390;SDS011;8813;54.444;18.446;2023-04-01T10:29:00;2.90;;;2.90;;
17390;SDS011;8813;54.444;18.446;2023-04-01T10:31:41;3.13;;;3.03;;
17390;SDS011;8813;54.444;18.446;2023-04-01T10:40:39;2.73;;;2.73;;
17390;SDS011;8813;54.444;18.446;2023-04-01T10:46:28;2.60;;;2.60;;
17390;SDS011;8813;54.444;18.446;2023-04-01T10:49:10;2.80;;;2.70;;
17390;SDS011;8813;54.444;18.446;2023-04-01T10:54:46;3.90;;;3.80;;
17390;SDS011;8813;54.444;18.446;2023-04-01T11:00:25;3.20;;;3.00;;
17390;SDS011;8813;54.444;18.446;2023-04-01T11:03:19;3.53;;;2.80;;
17390;SDS011;8813;54.444;18.446;2023-04-01T11:06:19;2.53;;;2.53;;
17390;SDS011;8813;54.444;18.446;2023-04-01T11:15:59;3.17;;;3.07;;
17390;SDS011;8813;54.444;18.446;2023-04-01T11:19:02;2.43;;;2.43;;
17390;SDS011;8813;54.444;18.446;2023-04-01T11:22:06;2.70;;;2.70;;
17390;SDS011;8813;54.444;18.446;2023-04-01T11:24:51;2.90;;;2.90;;
17390;SDS011;8813;54.444;18.446;2023-04-01T11:27:35;2.60;;;2.60;;
17390;SDS011;8813;54.444;18.446;2023-04-01T11:30:20;2.70;;;2.60;;
17390;SDS011;8813;54.444;18.446;2023-04-01T11:32:56;2.80;;;2.70;;
17390;SDS011;8813;54.444;18.446;2023-04-01T11:38:51;2.40;;;2.40;;
17390;SDS011;8813;54.444;18.446;2023-04-01T11:41:26;2.33;;;2.33;;
17390;SDS011;8813;54.444;18.446;2023-04-01T11:44:06;2.60;;;2.60;;
17390;SDS011;8813;54.444;18.446;2023-04-01T11:46:39;2.63;;;2.63;;
17390;SDS011;8813;54.444;18.446;2023-04-01T11:49:23;2.30;;;2.30;;
17390;SDS011;8813;54.444;18.446;2023-04-01T11:52:05;2.30;;;2.30;;
17390;SDS011;8813;54.444;18.446;2023-04-01T11:54:45;2.20;;;2.20;;
17390;SDS011;8813;54.444;18.446;2023-04-01T12:03:38;2.20;;;2.20;;
17390;SDS011;8813;54.444;18.446;2023-04-01T12:06:25;2.40;;;2.40;;
17390;SDS011;8813;54.444;18.446;2023-04-01T12:09:00;2.30;;;2.30;;
17390;SDS011;8813;54.444;18.446;2023-04-01T12:11:32;2.60;;;2.60;;
17390;SDS011;8813;54.444;18.446;2023-04-01T12:14:04;2.37;;;2.37;;
17390;SDS011;8813;54.444;18.446;2023-04-01T12:16:41;2.40;;;2.40;;
17390;SDS011;8813;54.444;18.446;2023-04-01T12:19:15;2.80;;;2.70;;
17390;SDS011;8813;54.444;18.446;2023-04-01T12:21:51;2.50;;;2.50;;
17390;SDS011;8813;54.444;18.446;2023-04-01T12:24:31;3.27;;;3.00;;
17390;SDS011;8813;54.444;18.446;2023-04-01T12:27:10;2.50;;;2.50;;
17390;SDS011;8813;54.444;18.446;2023-04-01T12:29:48;2.73;;;2.73;;
17390;SDS011;8813;54.444;18.446;2023-04-01T12:32:34;2.80;;;2.80;;
17390;SDS011;8813;54.444;18.446;2023-04-01T12:38:13;2.60;;;2.60;;
17390;SDS011;8813;54.444;18.446;2023-04-01T12:40:50;2.40;;;2.40;;
17390;SDS011;8813;54.444;18.446;2023-04-01T12:43:33;2.70;;;2.70;;
17390;SDS011;8813;54.444;18.446;2023-04-01T12:46:13;2.30;;;2.30;;
17390;SDS011;8813;54.444;18.446;2023-04-01T12:48:51;2.60;;;2.60;;
17390;SDS011;8813;54.444;18.446;2023-04-01T12:51:50;3.10;;;3.00;;
17390;SDS011;8813;54.444;18.446;2023-04-01T12:54:30;2.70;;;2.70;;
17390;SDS011;8813;54.444;18.446;2023-04-01T12:57:22;3.00;;;2.90;;
17390;SDS011;8813;54.444;18.446;2023-04-01T13:00:03;2.60;;;2.60;;
17390;SDS011;8813;54.444;18.446;2023-04-01T13:02:40;2.40;;;2.40;;
17390;SDS011;8813;54.444;18.446;2023-04-01T13:05:21;2.73;;;2.73;;
17390;SDS011;8813;54.444;18.446;2023-04-01T13:07:53;2.40;;;2.40;;
17390;SDS011;8813;54.444;18.446;2023-04-01T13:10:30;2.33;;;2.33;;
17390;SDS011;8813;54.444;18.446;2023-04-01T13:13:18;2.60;;;2.60;;
17390;SDS011;8813;54.444;18.446;2023-04-01T13:15:54;2.30;;;2.30;;
17390;SDS011;8813;54.444;18.446;2023-04-01T13:18:28;2.83;;;2.70;;
17390;SDS011;8813;54.444;18.446;2023-04-01T13:21:01;10.80;;;8.73;;
17390;SDS011;8813;54.444;18.446;2023-04-01T13:23:38;2.30;;;2.30;;
17390;SDS011;8813;54.444;18.446;2023-04-01T13:26:17;2.40;;;2.40;;
17390;SDS011;8813;54.444;18.446;2023-04-01T13:28:47;2.37;;;2.37;;
17390;SDS011;8813;54.444;18.446;2023-04-01T13:31:26;2.40;;;2.40;;
17390;SDS011;8813;54.444;18.446;2023-04-01T13:34:04;2.53;;;2.47;;
17390;SDS011;8813;54.444;18.446;2023-04-01T13:36:51;2.30;;;2.30;;
17390;SDS011;8813;54.444;18.446;2023-04-01T13:42:16;2.33;;;2.33;;
17390;SDS011;8813;54.444;18.446;2023-04-01T13:44:51;2.30;;;2.30;;
17390;SDS011;8813;54.444;18.446;2023-04-01T13:47:28;3.17;;;3.07;;
17390;SDS011;8813;54.444;18.446;2023-04-01T13:50:21;2.70;;;2.70;;
17390;SDS011;8813;54.444;18.446;2023-04-01T13:53:09;2.67;;;2.67;;
17390;SDS011;8813;54.444;18.446;2023-04-01T13:55:49;2.80;;;2.80;;
17390;SDS011;8813;54.444;18.446;2023-04-01T14:01:31;3.20;;;3.10;;
17390;SDS011;8813;54.444;18.446;2023-04-01T14:07:04;2.97;;;2.90;;
17390;SDS011;8813;54.444;18.446;2023-04-01T14:09:51;2.50;;;2.50;;
17390;SDS011;8813;54.444;18.446;2023-04-01T14:12:29;3.20;;;3.10;;
17390;SDS011;8813;54.444;18.446;2023-04-01T14:15:05;3.10;;;2.97;;
17390;SDS011;8813;54.444;18.446;2023-04-01T14:17:47;2.80;;;2.80;;
17390;SDS011;8813;54.444;18.446;2023-04-01T14:20:22;2.77;;;2.77;;
17390;SDS011;8813;54.444;18.446;2023-04-01T14:22:56;2.90;;;2.80;;
17390;SDS011;8813;54.444;18.446;2023-04-01T14:25:38;2.53;;;2.53;;
17390;SDS011;8813;54.444;18.446;2023-04-01T14:28:14;3.33;;;3.23;;
17390;SDS011;8813;54.444;18.446;2023-04-01T14:30:58;3.20;;;3.10;;
17390;SDS011;8813;54.444;18.446;2023-04-01T14:33:42;2.70;;;2.70;;
17390;SDS011;8813;54.444;18.446;2023-04-01T14:36:30;3.40;;;3.20;;
17390;SDS011;8813;54.444;18.446;2023-04-01T14:39:10;3.50;;;3.40;;
17390;SDS011;8813;54.444;18.446;2023-04-01T14:41:46;3.77;;;3.53;;
17390;SDS011;8813;54.444;18.446;2023-04-01T14:50:14;2.60;;;2.60;;
17390;SDS011;8813;54.444;18.446;2023-04-01T14:52:44;2.97;;;2.97;;
17390;SDS011;8813;54.444;18.446;2023-04-01T14:55:20;3.33;;;3.23;;
17390;SDS011;8813;54.444;18.446;2023-04-01T14:57:57;3.47;;;3.37;;
17390;SDS011;8813;54.444;18.446;2023-04-01T15:00:26;3.30;;;3.20;;
17390;SDS011;8813;54.444;18.446;2023-04-01T15:02:55;3.40;;;3.30;;
17390;SDS011;8813;54.444;18.446;2023-04-01T15:05:36;3.23;;;3.13;;
17390;SDS011;8813;54.444;18.446;2023-04-01T15:08:08;3.10;;;3.00;;
17390;SDS011;8813;54.444;18.446;2023-04-01T15:16:27;3.53;;;3.33;;
17390;SDS011;8813;54.444;18.446;2023-04-01T15:19:01;3.50;;;3.30;;
17390;SDS011;8813;54.444;18.446;2023-04-01T15:21:44;2.40;;;2.40;;
17390;SDS011;8813;54.444;18.446;2023-04-01T15:24:16;2.40;;;2.40;;
17390;SDS011;8813;54.444;18.446;2023-04-01T15:26:50;2.57;;;2.57;;
17390;SDS011;8813;54.444;18.446;2023-04-01T15:32:30;4.30;;;4.00;;
17390;SDS011;8813;54.444;18.446;2023-04-01T15:35:09;5.03;;;4.73;;
17390;SDS011;8813;54.444;18.446;2023-04-01T15:37:48;7.90;;;4.53;;
17390;SDS011;8813;54.444;18.446;2023-04-01T15:40:20;5.10;;;4.60;;
17390;SDS011;8813;54.444;18.446;2023-04-01T15:42:53;3.70;;;3.50;;
17390;SDS011;8813;54.444;18.446;2023-04-01T15:45:31;3.47;;;3.37;;
17390;SDS011;8813;54.444;18.446;2023-04-01T15:48:06;3.43;;;3.33;;
17390;SDS011;8813;54.444;18.446;2023-04-01T15:53:27;3.30;;;3.00;;
17390;SDS011;8813;54.444;18.446;2023-04-01T15:56:08;3.50;;;3.30;;
17390;SDS011;8813;54.444;18.446;2023-04-01T15:58:44;3.07;;;2.97;;
17390;SDS011;8813;54.444;18.446;2023-04-01T16:01:22;3.33;;;3.23;;
17390;SDS011;8813;54.444;18.446;2023-04-01T16:03:54;3.70;;;3.60;;
17390;SDS011;8813;54.444;18.446;2023-04-01T16:12:11;2.90;;;2.90;;
17390;SDS011;8813;54.444;18.446;2023-04-01T16:14:44;4.10;;;3.70;;
17390;SDS011;8813;54.444;18.446;2023-04-01T16:17:24;3.33;;;3.23;;
17390;SDS011;8813;54.444;18.446;2023-04-01T16:19:57;2.50;;;2.50;;
17390;SDS011;8813;54.444;18.446;2023-04-01T16:22:27;3.53;;;3.43;;
17390;SDS011;8813;54.444;18.446;2023-04-01T16:25:07;3.60;;;3.50;;
17390;SDS011;8813;54.444;18.446;2023-04-01T16:27:46;3.87;;;3.67;;
17390;SDS011;8813;54.444;18.446;2023-04-01T16:30:23;3.23;;;3.13;;
17390;SDS011;8813;54.444;18.446;2023-04-01T16:32:54;4.50;;;3.00;;
17390;SDS011;8813;54.444;18.446;2023-04-01T16:35:26;3.50;;;3.30;;
17390;SDS011;8813;54.444;18.446;2023-04-01T16:37:59;4.63;;;2.80;;
17390;SDS011;8813;54.444;18.446;2023-04-01T16:40:36;2.70;;;2.60;;
17390;SDS011;8813;54.444;18.446;2023-04-01T16:43:12;2.80;;;2.70;;
17390;SDS011;8813;54.444;18.446;2023-04-01T16:45:45;3.73;;;3.53;;
17390;SDS011;8813;54.444;18.446;2023-04-01T16:48:20;2.90;;;2.70;;
17390;SDS011;8813;54.444;18.446;2023-04-01T16:50:52;4.20;;;3.90;;
17390;SDS011;8813;54.444;18.446;2023-04-01T16:53:22;2.63;;;2.63;;
17390;SDS011;8813;54.444;18.446;2023-04-01T16:56:08;4.33;;;4.03;;
17390;SDS011;8813;54.444;18.446;2023-04-01T16:58:39;3.30;;;3.20;;
17390;SDS011;8813;54.444;18.446;2023-04-01T17:01:09;3.20;;;3.10;;
17390;SDS011;8813;54.444;18.446;2023-04-01T17:03:40;4.07;;;3.87;;
17390;SDS011;8813;54.444;18.446;2023-04-01T17:06:20;4.00;;;2.57;;
17390;SDS011;8813;54.444;18.446;2023-04-01T17:08:58;2.77;;;2.77;;
17390;SDS011;8813;54.444;18.446;2023-04-01T17:11:33;10.87;;;3.03;;
17390;SDS011;8813;54.444;18.446;2023-04-01T17:14:06;2.90;;;2.80;;
17390;SDS011;8813;54.444;18.446;2023-04-01T17:19:46;3.07;;;2.97;;